sensor_id;sensor_type;location;lat;lon;timestamp;pressure;altitude;pressure_sealevel;temperature;humidity
29417;BME280;28421;51.030;4.006;2023-09-19T00:01:06;100917.88;;;14.38;78.12
29417;BME280;28421;51.030;4.006;2023-09-19T00:03:36;100940.69;;;14.50;78.59
29417;BME280;28421;51.030;4.006;2023-09-19T00:06:03;100933.25;;;14.37;77.37
29417;BME280;28421;51.030;4.006;2023-09-19T00:08:33;100953.19;;;14.51;77.94
29417;BME280;28421;51.030;4.006;2023-09-19T00:10:59;100921.75;;;14.29;77.51
29417;BME280;28421;51.030;4.006;2023-09-19T00:13:34;100929.97;;;14.42;78.52
29417;BME280;28421;51.030;4.006;2023-09-19T00:16:08;100942.22;;;14.38;77.74
29417;BME280;28421;51.030;4.006;2023-09-19T00:18:34;100939.13;;;14.41;77.69
29417;BME280;28421;51.030;4.006;2023-09-19T00:21:00;100927.09;;;14.22;78.25
29417;BME280;28421;51.030;4.006;2023-09-19T00:23:26;100957.22;;;14.40;77.96
29417;BME280;28421;51.030;4.006;2023-09-19T00:25:52;100948.66;;;14.37;77.95
29417;BME280;28421;51.030;4.006;2023-09-19T00:28:18;100953.03;;;14.38;78.23
29417;BME280;28421;51.030;4.006;2023-09-19T00:30:45;100947.00;;;14.36;78.51
29417;BME280;28421;51.030;4.006;2023-09-19T00:33:15;100961.34;;;14.36;77.81
29417;BME280;28421;51.030;4.006;2023-09-19T00:35:52;100967.84;;;14.42;79.12
29417;BME280;28421;51.030;4.006;2023-09-19T00:38:18;100957.16;;;14.34;79.85
29417;BME280;28421;51.030;4.006;2023-09-19T00:40:50;100941.25;;;14.24;79.76
29417;BME280;28421;51.030;4.006;2023-09-19T00:43:19;100951.25;;;14.24;78.38
29417;BME280;28421;51.030;4.006;2023-09-19T00:45:47;100973.25;;;14.42;79.01
29417;BME280;28421;51.030;4.006;2023-09-19T00:48:14;100968.50;;;14.44;79.57
29417;BME280;28421;51.030;4.006;2023-09-19T00:50:41;100962.81;;;14.39;79.31
29417;BME280;28421;51.030;4.006;2023-09-19T00:53:09;100962.06;;;14.24;78.61
29417;BME280;28421;51.030;4.006;2023-09-19T00:55:39;100984.03;;;14.35;78.83
29417;BME280;28421;51.030;4.006;2023-09-19T00:58:08;100930.72;;;14.08;79.25
29417;BME280;28421;51.030;4.006;2023-09-19T01:00:33;100977.50;;;14.30;79.03
29417;BME280;28421;51.030;4.006;2023-09-19T01:03:00;100972.56;;;14.33;79.13
29417;BME280;28421;51.030;4.006;2023-09-19T01:05:29;100971.47;;;14.28;79.12
29417;BME280;28421;51.030;4.006;2023-09-19T01:07:55;100985.63;;;14.30;79.01
29417;BME280;28421;51.030;4.006;2023-09-19T01:10:21;100974.19;;;14.28;79.36
29417;BME280;28421;51.030;4.006;2023-09-19T01:13:11;100982.53;;;14.33;78.90
29417;BME280;28421;51.030;4.006;2023-09-19T01:15:57;100982.78;;;14.38;78.56
29417;BME280;28421;51.030;4.006;2023-09-19T01:18:36;100968.31;;;14.24;78.82
29417;BME280;28421;51.030;4.006;2023-09-19T01:21:21;100978.78;;;14.34;78.30
29417;BME280;28421;51.030;4.006;2023-09-19T01:29:13;100983.25;;;14.41;79.53
29417;BME280;28421;51.030;4.006;2023-09-19T01:31:51;100978.41;;;14.37;78.88
29417;BME280;28421;51.030;4.006;2023-09-19T01:34:19;100987.34;;;14.52;78.96
29417;BME280;28421;51.030;4.006;2023-09-19T01:36:45;100991.16;;;14.43;78.52
29417;BME280;28421;51.030;4.006;2023-09-19T01:39:12;100965.03;;;14.29;79.61
29417;BME280;28421;51.030;4.006;2023-09-19T01:41:51;100995.84;;;14.49;79.93
29417;BME280;28421;51.030;4.006;2023-09-19T01:44:49;100985.94;;;14.41;79.83
29417;BME280;28421;51.030;4.006;2023-09-19T01:47:46;100993.97;;;14.50;79.74
29417;BME280;28421;51.030;4.006;2023-09-19T01:50:22;100981.38;;;14.42;79.72
29417;BME280;28421;51.030;4.006;2023-09-19T01:53:25;100990.03;;;14.52;79.37
29417;BME280;28421;51.030;4.006;2023-09-19T01:55:54;100978.56;;;14.50;79.61
29417;BME280;28421;51.030;4.006;2023-09-19T01:58:21;100998.84;;;14.61;79.23
29417;BME280;28421;51.030;4.006;2023-09-19T02:00:50;100974.81;;;14.51;79.13
29417;BME280;28421;51.030;4.006;2023-09-19T02:03:17;100982.38;;;14.56;79.14
29417;BME280;28421;51.030;4.006;2023-09-19T02:05:49;100982.41;;;14.62;78.81
29417;BME280;28421;51.030;4.006;2023-09-19T02:08:19;100979.81;;;14.76;78.64
29417;BME280;28421;51.030;4.006;2023-09-19T02:10:45;100978.97;;;14.75;78.14
29417;BME280;28421;51.030;4.006;2023-09-19T02:13:18;100983.41;;;14.83;77.79
29417;BME280;28421;51.030;4.006;2023-09-19T02:15:47;100987.41;;;14.87;77.20
29417;BME280;28421;51.030;4.006;2023-09-19T02:18:13;100965.00;;;14.72;76.79
29417;BME280;28421;51.030;4.006;2023-09-19T02:20:41;100989.91;;;14.88;77.27
29417;BME280;28421;51.030;4.006;2023-09-19T02:23:08;100991.91;;;14.80;76.42
29417;BME280;28421;51.030;4.006;2023-09-19T02:25:35;100985.06;;;14.77;76.71
29417;BME280;28421;51.030;4.006;2023-09-19T02:28:01;100982.34;;;14.77;76.61
29417;BME280;28421;51.030;4.006;2023-09-19T02:30:28;100958.41;;;14.53;77.17
29417;BME280;28421;51.030;4.006;2023-09-19T02:32:55;100994.34;;;14.68;76.68
29417;BME280;28421;51.030;4.006;2023-09-19T02:35:20;100966.19;;;14.62;77.03
29417;BME280;28421;51.030;4.006;2023-09-19T02:37:47;100968.72;;;14.64;77.80
29417;BME280;28421;51.030;4.006;2023-09-19T02:40:13;100972.63;;;14.61;77.53
29417;BME280;28421;51.030;4.006;2023-09-19T02:42:48;100993.19;;;14.84;77.87
29417;BME280;28421;51.030;4.006;2023-09-19T02:45:18;101004.44;;;14.81;77.96
29417;BME280;28421;51.030;4.006;2023-09-19T02:47:47;101002.38;;;14.83;77.86
29417;BME280;28421;51.030;4.006;2023-09-19T02:50:14;100999.72;;;14.89;77.73
29417;BME280;28421;51.030;4.006;2023-09-19T02:52:42;101008.03;;;14.88;77.61
29417;BME280;28421;51.030;4.006;2023-09-19T02:55:09;101018.25;;;14.92;77.99
29417;BME280;28421;51.030;4.006;2023-09-19T02:57:36;101000.56;;;14.90;78.31
29417;BME280;28421;51.030;4.006;2023-09-19T03:00:09;101012.81;;;14.86;78.42
29417;BME280;28421;51.030;4.006;2023-09-19T03:02:38;101006.56;;;14.85;78.87
29417;BME280;28421;51.030;4.006;2023-09-19T03:05:07;100993.03;;;14.85;78.95
29417;BME280;28421;51.030;4.006;2023-09-19T03:07:33;101019.75;;;14.95;79.26
29417;BME280;28421;51.030;4.006;2023-09-19T03:09:59;100996.72;;;14.78;79.49
29417;BME280;28421;51.030;4.006;2023-09-19T03:12:28;100995.03;;;14.77;80.38
29417;BME280;28421;51.030;4.006;2023-09-19T03:14:53;101013.44;;;14.88;80.65
29417;BME280;28421;51.030;4.006;2023-09-19T03:17:21;101001.31;;;14.84;81.50
29417;BME280;28421;51.030;4.006;2023-09-19T03:19:46;100978.16;;;14.75;82.53
29417;BME280;28421;51.030;4.006;2023-09-19T03:22:14;101018.00;;;14.87;83.90
29417;BME280;28421;51.030;4.006;2023-09-19T03:24:40;100977.34;;;14.53;85.36
29417;BME280;28421;51.030;4.006;2023-09-19T03:27:12;101013.69;;;14.65;86.97
29417;BME280;28421;51.030;4.006;2023-09-19T03:29:39;100998.16;;;14.52;87.83
29417;BME280;28421;51.030;4.006;2023-09-19T03:32:05;100998.78;;;14.54;88.17
29417;BME280;28421;51.030;4.006;2023-09-19T03:34:32;101000.28;;;14.57;88.54
29417;BME280;28421;51.030;4.006;2023-09-19T03:36:57;100999.00;;;14.53;89.34
29417;BME280;28421;51.030;4.006;2023-09-19T03:39:23;100991.06;;;14.51;89.33
29417;BME280;28421;51.030;4.006;2023-09-19T03:41:49;101002.16;;;14.56;89.82
29417;BME280;28421;51.030;4.006;2023-09-19T03:44:15;101002.09;;;14.50;90.16
29417;BME280;28421;51.030;4.006;2023-09-19T03:46:40;101014.28;;;14.46;90.85
29417;BME280;28421;51.030;4.006;2023-09-19T03:49:06;100993.75;;;14.30;91.69
29417;BME280;28421;51.030;4.006;2023-09-19T03:51:32;101003.84;;;14.42;91.27
29417;BME280;28421;51.030;4.006;2023-09-19T03:53:59;101007.22;;;14.45;91.36
29417;BME280;28421;51.030;4.006;2023-09-19T03:56:26;100987.75;;;14.34;91.29
29417;BME280;28421;51.030;4.006;2023-09-19T03:58:51;101013.59;;;14.37;91.25
29417;BME280;28421;51.030;4.006;2023-09-19T04:01:17;101004.31;;;14.25;91.20
29417;BME280;28421;51.030;4.006;2023-09-19T04:03:44;100980.75;;;14.18;91.41
29417;BME280;28421;51.030;4.006;2023-09-19T04:06:16;100995.72;;;14.21;90.89
29417;BME280;28421;51.030;4.006;2023-09-19T04:08:43;101003.09;;;14.27;91.15
29417;BME280;28421;51.030;4.006;2023-09-19T04:11:10;100984.19;;;14.12;90.93
29417;BME280;28421;51.030;4.006;2023-09-19T04:13:36;100993.88;;;14.22;91.34
29417;BME280;28421;51.030;4.006;2023-09-19T04:16:03;100985.88;;;14.13;91.70
29417;BME280;28421;51.030;4.006;2023-09-19T04:18:35;101002.09;;;14.13;91.49
29417;BME280;28421;51.030;4.006;2023-09-19T04:21:04;100981.75;;;13.96;92.01
29417;BME280;28421;51.030;4.006;2023-09-19T04:23:32;100992.69;;;14.09;91.86
29417;BME280;28421;51.030;4.006;2023-09-19T04:25:58;100989.28;;;14.01;92.16
29417;BME280;28421;51.030;4.006;2023-09-19T04:28:23;100986.31;;;13.96;92.27
29417;BME280;28421;51.030;4.006;2023-09-19T04:30:49;101000.75;;;14.03;92.37
29417;BME280;28421;51.030;4.006;2023-09-19T04:33:15;101003.44;;;14.03;91.79
29417;BME280;28421;51.030;4.006;2023-09-19T04:35:41;101025.81;;;14.11;92.20
29417;BME280;28421;51.030;4.006;2023-09-19T04:38:07;101019.66;;;14.03;92.47
29417;BME280;28421;51.030;4.006;2023-09-19T04:40:33;101005.34;;;13.87;92.51
29417;BME280;28421;51.030;4.006;2023-09-19T04:42:59;101005.44;;;13.94;92.48
29417;BME280;28421;51.030;4.006;2023-09-19T04:45:26;101045.09;;;14.08;92.94
29417;BME280;28421;51.030;4.006;2023-09-19T04:47:52;101011.78;;;13.86;92.59
29417;BME280;28421;51.030;4.006;2023-09-19T04:50:18;101038.34;;;13.98;93.17
29417;BME280;28421;51.030;4.006;2023-09-19T04:52:44;101033.47;;;13.93;93.35
29417;BME280;28421;51.030;4.006;2023-09-19T04:55:10;101066.81;;;14.15;93.16
29417;BME280;28421;51.030;4.006;2023-09-19T04:57:39;101057.59;;;14.09;92.97
29417;BME280;28421;51.030;4.006;2023-09-19T05:00:05;101008.41;;;13.84;93.09
29417;BME280;28421;51.030;4.006;2023-09-19T05:02:38;101038.72;;;13.95;93.08
29417;BME280;28421;51.030;4.006;2023-09-19T05:05:06;101026.03;;;13.95;93.15
29417;BME280;28421;51.030;4.006;2023-09-19T05:07:31;101031.22;;;13.97;93.76
29417;BME280;28421;51.030;4.006;2023-09-19T05:09:57;101020.25;;;13.83;93.77
29417;BME280;28421;51.030;4.006;2023-09-19T05:12:22;101028.53;;;13.97;94.01
29417;BME280;28421;51.030;4.006;2023-09-19T05:14:48;101005.66;;;13.78;94.37
29417;BME280;28421;51.030;4.006;2023-09-19T05:17:13;101039.63;;;14.02;94.41
29417;BME280;28421;51.030;4.006;2023-09-19T05:19:42;100998.56;;;13.77;94.49
29417;BME280;28421;51.030;4.006;2023-09-19T05:22:08;101025.81;;;13.97;94.63
29417;BME280;28421;51.030;4.006;2023-09-19T05:24:33;101019.31;;;13.91;94.46
29417;BME280;28421;51.030;4.006;2023-09-19T05:26:59;101038.34;;;13.98;95.22
29417;BME280;28421;51.030;4.006;2023-09-19T05:29:24;101028.72;;;13.95;95.33
29417;BME280;28421;51.030;4.006;2023-09-19T05:31:50;101036.56;;;13.90;95.76
29417;BME280;28421;51.030;4.006;2023-09-19T05:34:16;101022.78;;;13.85;95.83
29417;BME280;28421;51.030;4.006;2023-09-19T05:36:41;101048.84;;;13.92;95.96
29417;BME280;28421;51.030;4.006;2023-09-19T05:39:07;101057.06;;;13.99;96.34
29417;BME280;28421;51.030;4.006;2023-09-19T05:41:35;101035.84;;;13.81;96.89
29417;BME280;28421;51.030;4.006;2023-09-19T05:44:05;101021.09;;;13.84;96.72
29417;BME280;28421;51.030;4.006;2023-09-19T05:46:32;101008.72;;;13.75;96.26
29417;BME280;28421;51.030;4.006;2023-09-19T05:48:57;101041.31;;;13.88;97.15
29417;BME280;28421;51.030;4.006;2023-09-19T05:51:24;101044.13;;;13.95;96.65
29417;BME280;28421;51.030;4.006;2023-09-19T05:53:50;101067.75;;;14.07;96.76
29417;BME280;28421;51.030;4.006;2023-09-19T05:56:16;101057.13;;;14.06;96.31
29417;BME280;28421;51.030;4.006;2023-09-19T05:58:44;101069.44;;;14.08;96.73
29417;BME280;28421;51.030;4.006;2023-09-19T06:01:10;101064.50;;;13.97;96.85
29417;BME280;28421;51.030;4.006;2023-09-19T06:03:35;101062.81;;;14.11;96.63
29417;BME280;28421;51.030;4.006;2023-09-19T06:06:04;101071.19;;;14.16;96.99
29417;BME280;28421;51.030;4.006;2023-09-19T06:08:32;101057.59;;;14.09;96.49
29417;BME280;28421;51.030;4.006;2023-09-19T06:10:59;101042.03;;;14.11;96.22
29417;BME280;28421;51.030;4.006;2023-09-19T06:13:25;101050.41;;;14.16;95.66
29417;BME280;28421;51.030;4.006;2023-09-19T06:15:52;101076.72;;;14.44;95.60
29417;BME280;28421;51.030;4.006;2023-09-19T06:18:17;101015.50;;;14.22;95.11
29417;BME280;28421;51.030;4.006;2023-09-19T06:20:48;101060.03;;;14.40;95.20
29417;BME280;28421;51.030;4.006;2023-09-19T06:23:16;101044.94;;;14.31;94.82
29417;BME280;28421;51.030;4.006;2023-09-19T06:25:43;101029.19;;;14.35;94.65
29417;BME280;28421;51.030;4.006;2023-09-19T06:28:09;101076.41;;;14.75;94.58
29417;BME280;28421;51.030;4.006;2023-09-19T06:30:37;101031.63;;;14.51;94.34
29417;BME280;28421;51.030;4.006;2023-09-19T06:33:06;101040.50;;;14.60;94.25
29417;BME280;28421;51.030;4.006;2023-09-19T06:35:35;101089.69;;;14.91;93.24
29417;BME280;28421;51.030;4.006;2023-09-19T06:38:04;101048.72;;;14.52;93.30
29417;BME280;28421;51.030;4.006;2023-09-19T06:40:31;101055.59;;;14.54;93.92
29417;BME280;28421;51.030;4.006;2023-09-19T06:42:56;101046.72;;;14.60;93.47
29417;BME280;28421;51.030;4.006;2023-09-19T06:45:22;101054.38;;;14.78;93.10
29417;BME280;28421;51.030;4.006;2023-09-19T06:47:52;101074.94;;;14.94;92.72
29417;BME280;28421;51.030;4.006;2023-09-19T06:50:18;101062.38;;;14.86;92.05
29417;BME280;28421;51.030;4.006;2023-09-19T06:52:46;101058.03;;;14.92;91.93
29417;BME280;28421;51.030;4.006;2023-09-19T06:55:16;101073.06;;;14.95;91.37
29417;BME280;28421;51.030;4.006;2023-09-19T06:57:42;101089.03;;;15.11;91.45
29417;BME280;28421;51.030;4.006;2023-09-19T07:00:11;101076.25;;;15.05;90.99
29417;BME280;28421;51.030;4.006;2023-09-19T07:05:33;101079.28;;;15.16;90.64
29417;BME280;28421;51.030;4.006;2023-09-19T07:07:59;101081.84;;;15.25;90.95
29417;BME280;28421;51.030;4.006;2023-09-19T07:10:26;101069.63;;;15.07;90.19
29417;BME280;28421;51.030;4.006;2023-09-19T07:13:03;101075.38;;;15.26;90.43
29417;BME280;28421;51.030;4.006;2023-09-19T07:15:32;101073.56;;;15.33;90.05
29417;BME280;28421;51.030;4.006;2023-09-19T07:18:02;101075.88;;;15.36;89.61
29417;BME280;28421;51.030;4.006;2023-09-19T07:20:27;101053.59;;;15.40;88.72
29417;BME280;28421;51.030;4.006;2023-09-19T07:22:57;101064.91;;;15.44;88.28
29417;BME280;28421;51.030;4.006;2023-09-19T07:25:25;101062.66;;;15.54;88.49
29417;BME280;28421;51.030;4.006;2023-09-19T07:27:51;101061.28;;;15.65;87.60
29417;BME280;28421;51.030;4.006;2023-09-19T07:30:16;101061.22;;;15.58;87.17
29417;BME280;28421;51.030;4.006;2023-09-19T07:32:42;101087.19;;;15.74;86.90
29417;BME280;28421;51.030;4.006;2023-09-19T07:35:08;101077.16;;;15.68;86.38
29417;BME280;28421;51.030;4.006;2023-09-19T07:37:34;101089.53;;;15.84;87.24
29417;BME280;28421;51.030;4.006;2023-09-19T07:40:00;101079.91;;;15.75;85.99
29417;BME280;28421;51.030;4.006;2023-09-19T07:42:33;101052.81;;;15.81;86.29
29417;BME280;28421;51.030;4.006;2023-09-19T07:45:02;101066.84;;;15.91;85.24
29417;BME280;28421;51.030;4.006;2023-09-19T07:47:28;101069.38;;;16.00;84.52
29417;BME280;28421;51.030;4.006;2023-09-19T07:49:55;101077.78;;;16.11;84.77
29417;BME280;28421;51.030;4.006;2023-09-19T07:52:21;101085.53;;;16.21;84.07
29417;BME280;28421;51.030;4.006;2023-09-19T07:54:48;101079.69;;;16.24;83.20
29417;BME280;28421;51.030;4.006;2023-09-19T07:57:15;101077.19;;;16.29;84.18
29417;BME280;28421;51.030;4.006;2023-09-19T07:59:41;101072.41;;;16.31;83.71
29417;BME280;28421;51.030;4.006;2023-09-19T08:02:10;101059.94;;;16.44;82.70
29417;BME280;28421;51.030;4.006;2023-09-19T08:04:44;101070.81;;;16.70;82.93
29417;BME280;28421;51.030;4.006;2023-09-19T08:07:14;101068.72;;;16.65;81.43
29417;BME280;28421;51.030;4.006;2023-09-19T08:09:40;101063.50;;;16.71;81.77
29417;BME280;28421;51.030;4.006;2023-09-19T08:12:06;101042.25;;;16.74;81.61
29417;BME280;28421;51.030;4.006;2023-09-19T08:14:36;101063.78;;;16.89;80.47
29417;BME280;28421;51.030;4.006;2023-09-19T08:17:02;101068.56;;;17.07;80.10
29417;BME280;28421;51.030;4.006;2023-09-19T08:19:27;101069.41;;;17.07;78.64
29417;BME280;28421;51.030;4.006;2023-09-19T08:21:57;101088.66;;;17.06;78.84
29417;BME280;28421;51.030;4.006;2023-09-19T08:24:27;101077.16;;;17.10;77.75
29417;BME280;28421;51.030;4.006;2023-09-19T08:26:57;101077.09;;;17.37;77.97
29417;BME280;28421;51.030;4.006;2023-09-19T08:29:23;101063.56;;;17.30;76.81
29417;BME280;28421;51.030;4.006;2023-09-19T08:31:57;101058.31;;;17.35;77.92
29417;BME280;28421;51.030;4.006;2023-09-19T08:34:26;101042.19;;;17.40;75.97
29417;BME280;28421;51.030;4.006;2023-09-19T08:36:54;100999.97;;;17.38;76.47
29417;BME280;28421;51.030;4.006;2023-09-19T08:39:24;101030.63;;;17.72;74.82
29417;BME280;28421;51.030;4.006;2023-09-19T08:41:49;101029.56;;;17.73;74.88
29417;BME280;28421;51.030;4.006;2023-09-19T08:44:15;101031.00;;;17.88;75.60
29417;BME280;28421;51.030;4.006;2023-09-19T08:46:41;101030.75;;;17.97;73.27
29417;BME280;28421;51.030;4.006;2023-09-19T08:49:22;101032.94;;;17.68;73.27
29417;BME280;28421;51.030;4.006;2023-09-19T08:52:01;101032.88;;;17.88;72.65
29417;BME280;28421;51.030;4.006;2023-09-19T08:54:35;101034.78;;;17.81;71.18
29417;BME280;28421;51.030;4.006;2023-09-19T08:57:07;101066.66;;;18.12;71.02
29417;BME280;28421;51.030;4.006;2023-09-19T08:59:41;101033.66;;;17.95;71.09
29417;BME280;28421;51.030;4.006;2023-09-19T09:02:14;101038.09;;;17.96;71.08
29417;BME280;28421;51.030;4.006;2023-09-19T09:04:41;101028.06;;;17.90;71.17
29417;BME280;28421;51.030;4.006;2023-09-19T09:07:13;101004.22;;;17.85;70.96
29417;BME280;28421;51.030;4.006;2023-09-19T09:09:39;101012.69;;;18.09;69.88
29417;BME280;28421;51.030;4.006;2023-09-19T09:12:14;101026.78;;;18.31;69.85
29417;BME280;28421;51.030;4.006;2023-09-19T09:14:45;101043.66;;;18.46;69.51
29417;BME280;28421;51.030;4.006;2023-09-19T09:17:16;101029.81;;;18.48;69.83
29417;BME280;28421;51.030;4.006;2023-09-19T09:19:48;101023.28;;;18.24;68.99
29417;BME280;28421;51.030;4.006;2023-09-19T09:22:14;101056.75;;;18.24;70.62
29417;BME280;28421;51.030;4.006;2023-09-19T09:24:54;101020.66;;;18.04;68.04
29417;BME280;28421;51.030;4.006;2023-09-19T09:27:23;101030.28;;;18.06;69.15
29417;BME280;28421;51.030;4.006;2023-09-19T09:29:51;101055.81;;;18.05;68.79
29417;BME280;28421;51.030;4.006;2023-09-19T09:32:25;101051.28;;;17.93;69.13
29417;BME280;28421;51.030;4.006;2023-09-19T09:34:56;101052.97;;;17.87;69.22
29417;BME280;28421;51.030;4.006;2023-09-19T09:37:22;101036.88;;;17.85;70.67
29417;BME280;28421;51.030;4.006;2023-09-19T09:39:54;101019.94;;;17.77;71.01
29417;BME280;28421;51.030;4.006;2023-09-19T09:42:32;101052.56;;;17.83;71.04
29417;BME280;28421;51.030;4.006;2023-09-19T09:45:19;101052.88;;;18.07;72.46
29417;BME280;28421;51.030;4.006;2023-09-19T09:48:03;101040.56;;;17.98;70.94
29417;BME280;28421;51.030;4.006;2023-09-19T09:50:30;101043.78;;;18.26;71.67
29417;BME280;28421;51.030;4.006;2023-09-19T09:53:27;101025.13;;;18.30;71.28
29417;BME280;28421;51.030;4.006;2023-09-19T09:56:06;101019.44;;;18.38;71.33
29417;BME280;28421;51.030;4.006;2023-09-19T09:58:34;101001.94;;;18.52;71.19
29417;BME280;28421;51.030;4.006;2023-09-19T10:01:04;101045.63;;;18.71;70.07
29417;BME280;28421;51.030;4.006;2023-09-19T10:03:41;101001.09;;;18.52;69.37
29417;BME280;28421;51.030;4.006;2023-09-19T10:06:14;101026.56;;;18.71;68.77
29417;BME280;28421;51.030;4.006;2023-09-19T10:11:41;101039.63;;;18.87;69.17
29417;BME280;28421;51.030;4.006;2023-09-19T10:14:09;100982.75;;;18.72;68.58
29417;BME280;28421;51.030;4.006;2023-09-19T10:16:40;101038.03;;;19.04;67.69
29417;BME280;28421;51.030;4.006;2023-09-19T10:19:08;100994.03;;;19.01;68.22
29417;BME280;28421;51.030;4.006;2023-09-19T10:21:36;101012.97;;;19.14;66.96
29417;BME280;28421;51.030;4.006;2023-09-19T10:24:03;100989.72;;;19.11;68.00
29417;BME280;28421;51.030;4.006;2023-09-19T10:26:30;100998.59;;;19.25;66.58
29417;BME280;28421;51.030;4.006;2023-09-19T10:28:59;101022.66;;;19.28;66.58
29417;BME280;28421;51.030;4.006;2023-09-19T10:31:27;101002.91;;;19.15;67.09
29417;BME280;28421;51.030;4.006;2023-09-19T10:33:55;101021.09;;;19.39;66.70
29417;BME280;28421;51.030;4.006;2023-09-19T10:36:24;100980.34;;;19.26;65.85
29417;BME280;28421;51.030;4.006;2023-09-19T10:38:54;101020.72;;;19.35;66.12
29417;BME280;28421;51.030;4.006;2023-09-19T10:41:24;100996.41;;;19.34;65.67
29417;BME280;28421;51.030;4.006;2023-09-19T10:43:50;101019.75;;;19.48;65.95
29417;BME280;28421;51.030;4.006;2023-09-19T10:46:19;100988.28;;;19.27;65.48
29417;BME280;28421;51.030;4.006;2023-09-19T10:48:45;101012.97;;;19.32;65.58
29417;BME280;28421;51.030;4.006;2023-09-19T10:51:20;100998.59;;;19.25;65.74
29417;BME280;28421;51.030;4.006;2023-09-19T10:53:51;100986.34;;;19.16;65.13
29417;BME280;28421;51.030;4.006;2023-09-19T10:56:23;100980.50;;;19.31;65.83
29417;BME280;28421;51.030;4.006;2023-09-19T10:59:05;100989.44;;;19.56;65.50
29417;BME280;28421;51.030;4.006;2023-09-19T11:01:50;100961.81;;;19.34;63.80
29417;BME280;28421;51.030;4.006;2023-09-19T11:07:00;100955.66;;;19.57;63.61
29417;BME280;28421;51.030;4.006;2023-09-19T11:09:43;100954.31;;;19.97;65.17
29417;BME280;28421;51.030;4.006;2023-09-19T11:12:08;100952.00;;;20.12;62.77
29417;BME280;28421;51.030;4.006;2023-09-19T11:14:38;100932.78;;;20.19;61.11
29417;BME280;28421;51.030;4.006;2023-09-19T11:20:15;101000.75;;;20.92;59.78
29417;BME280;28421;51.030;4.006;2023-09-19T11:28:27;100999.69;;;21.05;59.37
29417;BME280;28421;51.030;4.006;2023-09-19T11:30:49;100962.97;;;20.66;58.79
29417;BME280;28421;51.030;4.006;2023-09-19T11:33:24;100943.03;;;20.35;58.37
29417;BME280;28421;51.030;4.006;2023-09-19T11:36:12;100999.88;;;20.68;60.23
29417;BME280;28421;51.030;4.006;2023-09-19T11:43:48;100999.75;;;20.51;59.94
29417;BME280;28421;51.030;4.006;2023-09-19T11:46:13;100941.91;;;20.13;59.31
29417;BME280;28421;51.030;4.006;2023-09-19T11:48:43;100958.91;;;20.26;60.42
29417;BME280;28421;51.030;4.006;2023-09-19T11:51:29;100953.16;;;20.46;59.88
29417;BME280;28421;51.030;4.006;2023-09-19T11:54:10;100977.59;;;20.83;57.88
29417;BME280;28421;51.030;4.006;2023-09-19T11:56:41;100935.50;;;20.60;58.21
29417;BME280;28421;51.030;4.006;2023-09-19T11:59:06;100947.94;;;20.45;57.87
29417;BME280;28421;51.030;4.006;2023-09-19T12:01:33;100963.59;;;20.38;58.12
29417;BME280;28421;51.030;4.006;2023-09-19T12:04:01;100984.22;;;20.64;58.54
29417;BME280;28421;51.030;4.006;2023-09-19T12:06:30;100990.16;;;20.72;58.13
29417;BME280;28421;51.030;4.006;2023-09-19T12:08:58;100970.28;;;20.65;59.01
29417;BME280;28421;51.030;4.006;2023-09-19T12:11:28;100980.78;;;20.80;58.67
29417;BME280;28421;51.030;4.006;2023-09-19T12:13:54;100984.22;;;20.75;58.21
29417;BME280;28421;51.030;4.006;2023-09-19T12:16:24;100955.63;;;20.48;58.99
29417;BME280;28421;51.030;4.006;2023-09-19T12:18:50;100984.47;;;20.74;59.81
29417;BME280;28421;51.030;4.006;2023-09-19T12:21:31;100987.44;;;20.84;59.50
29417;BME280;28421;51.030;4.006;2023-09-19T12:24:06;100999.09;;;20.91;58.78
29417;BME280;28421;51.030;4.006;2023-09-19T12:26:39;100980.44;;;21.00;58.82
29417;BME280;28421;51.030;4.006;2023-09-19T12:29:13;100978.25;;;20.55;57.97
29417;BME280;28421;51.030;4.006;2023-09-19T12:31:52;100990.53;;;20.88;58.86
29417;BME280;28421;51.030;4.006;2023-09-19T12:34:24;100986.25;;;20.80;59.45
29417;BME280;28421;51.030;4.006;2023-09-19T12:37:11;100986.97;;;20.87;59.23
29417;BME280;28421;51.030;4.006;2023-09-19T12:39:38;100991.47;;;20.70;59.18
29417;BME280;28421;51.030;4.006;2023-09-19T12:42:10;100951.75;;;20.55;59.33
29417;BME280;28421;51.030;4.006;2023-09-19T12:44:37;100956.06;;;20.75;59.57
29417;BME280;28421;51.030;4.006;2023-09-19T12:47:15;100978.03;;;20.68;58.67
29417;BME280;28421;51.030;4.006;2023-09-19T12:50:14;100987.09;;;20.39;59.23
29417;BME280;28421;51.030;4.006;2023-09-19T12:52:49;100993.84;;;20.66;59.82
29417;BME280;28421;51.030;4.006;2023-09-19T12:55:22;100997.06;;;20.87;59.87
29417;BME280;28421;51.030;4.006;2023-09-19T12:58:15;100984.09;;;20.58;58.81
29417;BME280;28421;51.030;4.006;2023-09-19T13:00:42;100961.34;;;20.46;59.67
29417;BME280;28421;51.030;4.006;2023-09-19T13:08:23;100972.81;;;21.14;58.94
29417;BME280;28421;51.030;4.006;2023-09-19T13:11:11;100974.97;;;20.88;59.00
29417;BME280;28421;51.030;4.006;2023-09-19T13:13:45;100959.28;;;20.83;59.73
29417;BME280;28421;51.030;4.006;2023-09-19T13:16:14;100942.75;;;20.67;58.95
29417;BME280;28421;51.030;4.006;2023-09-19T13:18:54;100967.94;;;20.69;58.99
29417;BME280;28421;51.030;4.006;2023-09-19T13:21:28;100977.81;;;20.81;59.25
29417;BME280;28421;51.030;4.006;2023-09-19T13:23:55;100943.34;;;20.80;58.89
29417;BME280;28421;51.030;4.006;2023-09-19T13:26:25;100928.13;;;20.96;59.67
29417;BME280;28421;51.030;4.006;2023-09-19T13:28:51;100968.16;;;21.26;58.23
29417;BME280;28421;51.030;4.006;2023-09-19T13:31:16;100950.59;;;20.98;58.51
29417;BME280;28421;51.030;4.006;2023-09-19T13:33:43;100961.91;;;20.90;59.18
29417;BME280;28421;51.030;4.006;2023-09-19T13:36:10;100947.63;;;20.76;58.82